Impacts TAF Board
For situational awareness. Not to be used for flight planning purposes.
IDs:

KMEM - Memphis Intl, TN, US

Issued at 0140 UTC 23 Sep 2018
Updated at 0227 UTC 23 Sep 2018
Potential Impact None Slight Moderate High
Time0154Z 23/03Z 23/04Z 23/05Z 23/06Z 23/07Z 23/08Z 23/09Z 23/10Z 23/11Z 23/12Z 23/13Z 23/14Z 23/15Z>>
Type OBS PRVL PRVL PRVL PRVL PRVL PRVL PRVL PRVL PRVL PRVL PRVL PRVL PRVL
VIS 10 6 4 4 4 4 3 3 3 3 3 3 3 3
CIG 8 7 5 5 5 5 3 3 3 3 3 3 3 3
Cover OVC OVC OVC OVC OVC OVC OVC OVC OVC OVC OVC OVC OVC OVC
FltCat IFR IFR IFR IFR IFR IFR LIFR LIFR LIFR LIFR LIFR LIFR LIFR LIFR
WX -RA -RA BR -RA -RA -RA -RA -SHRA BR -SHRA BR -SHRA BR -SHRA BR -SHRA BR -SHRA BR -SHRA BR -SHRA BR
WDir 60 40 30 30 30 30 40 40 40 40 40 40 40 40
WSpd 8 8 7 7 7 7 5 5 5 5 5 5 5 5
WGst -- -- -- -- -- -- -- -- -- -- -- -- -- --
Raw TAF
KMEM 230140Z 2302/2406 04008KT 6SM -RA BR OVC007
  FM230400 03007KT 4SM -RA OVC005
  FM230800 04005KT 3SM -SHRA BR OVC003
  FM231600 06006KT 4SM -SHRA BR OVC007
  FM240100 09005KT 5SM -RA BR OVC004


Raw METAR
KMEM 230154Z 06008KT 10SM -RA OVC008 20/19 A3004 RMK AO2 RAB49 SLP169 P0000 T02000189
KMEM 230054Z 05007KT 10SM OVC008 20/18 A3002 RMK AO2 SLP163 T02000183
KMEM 222354Z 04009KT 10SM OVC007 20/19 A3001 RMK AO2 SLP160 T02000189 10206 20200 58001

METAR Board
Radar Display
Forecast Discussion
For situational awareness. Not to be used for flight planning purposes.